createdAt,value
2023-02-25T11:21:24.641Z,1372.00
2023-02-25T11:22:24.195Z,1324.00
2023-02-25T11:24:28.083Z,1200.00
2023-02-25T11:25:28.045Z,1004.00
2023-02-25T11:27:31.942Z,528.00
2023-02-25T11:28:31.898Z,576.00
2023-02-25T11:30:35.810Z,1208.00
2023-02-25T11:31:35.939Z,1652.00
2023-02-25T11:33:39.641Z,1520.00
2023-02-25T11:34:39.590Z,1384.00
2023-02-25T11:36:43.678Z,1424.00
2023-02-25T11:37:45.339Z,1608.00
2023-02-25T11:39:47.375Z,2048.00
2023-02-25T11:40:47.295Z,2428.00
2023-02-25T11:42:51.208Z,3384.00
2023-02-25T11:43:51.173Z,3704.00
2023-02-25T11:45:55.060Z,3708.00
2023-02-25T11:46:54.996Z,2516.00
2023-02-25T11:48:47.816Z,5592.00
2023-02-25T11:49:47.768Z,2668.00
2023-02-25T11:51:51.653Z,6536.00
2023-02-25T11:52:51.610Z,7704.00
2023-02-25T11:54:55.516Z,8504.00
2023-02-25T11:55:55.463Z,8996.00
2023-02-25T11:57:59.356Z,9760.00
2023-02-25T11:58:59.314Z,8208.00
2023-02-25T12:01:03.238Z,7932.00
2023-02-25T12:02:03.180Z,6560.00
2023-02-25T12:04:07.078Z,9876.00
2023-02-25T12:05:07.024Z,9412.00
2023-02-25T12:06:07.001Z,4524.00
2023-02-25T12:07:06.948Z,7736.00
2023-02-25T12:08:14.405Z,8820.00
2023-02-25T12:09:06.875Z,8684.00
2023-02-25T12:10:06.838Z,8692.00
2023-02-25T12:11:06.806Z,8616.00
2023-02-25T12:12:06.763Z,8932.00
2023-02-25T12:13:06.731Z,9580.00
2023-02-25T12:14:06.697Z,2600.00
2023-02-25T12:15:06.670Z,2348.00
2023-02-25T12:16:06.654Z,10020.00
2023-02-25T12:17:06.583Z,7732.00
2023-02-25T12:18:06.550Z,9148.00
2023-02-25T12:19:06.505Z,5484.00
2023-02-25T12:20:06.559Z,6836.00
2023-02-25T12:21:06.440Z,7792.00
2023-02-25T12:22:06.407Z,2704.00
2023-02-25T12:23:06.375Z,2488.00
2023-02-25T12:24:06.324Z,2828.00
2023-02-25T12:25:06.291Z,3008.00
2023-02-25T12:26:06.250Z,3372.00
2023-02-25T12:27:06.216Z,2456.00
2023-02-25T12:28:06.178Z,2728.00
2023-02-25T12:29:06.150Z,9668.00
2023-02-25T12:30:06.114Z,2688.00
2023-02-25T12:31:06.144Z,2836.00
2023-02-25T12:32:06.205Z,3216.00
2023-02-25T12:33:06.001Z,3364.00
2023-02-25T12:34:05.957Z,3264.00
2023-02-25T12:35:05.922Z,2828.00
2023-02-25T12:36:05.888Z,2876.00
2023-02-25T12:37:05.856Z,3492.00
2023-02-25T12:38:05.828Z,3108.00
2023-02-25T12:39:05.774Z,3352.00
2023-02-25T12:40:05.739Z,4056.00
2023-02-25T12:41:05.701Z,2524.00
2023-02-25T12:42:05.662Z,2228.00
2023-02-25T12:43:05.635Z,4724.00
2023-02-25T12:44:05.592Z,11320.00
2023-02-25T12:45:05.546Z,3416.00
2023-02-25T12:46:05.625Z,3436.00
2023-02-25T12:47:05.507Z,3216.00
2023-02-25T12:48:05.457Z,3272.00
2023-02-25T12:49:05.411Z,3656.00
2023-02-25T12:50:05.371Z,3432.00
2023-02-25T12:51:05.345Z,3776.00
2023-02-25T12:52:05.299Z,3980.00
2023-02-25T12:53:05.259Z,6912.00
2023-02-25T12:54:05.218Z,2892.00
2023-02-25T12:55:05.182Z,9480.00
2023-02-25T12:56:05.150Z,3312.00
2023-02-25T12:57:05.111Z,4136.00
2023-02-25T12:58:05.082Z,11900.00
2023-02-25T12:59:05.036Z,3484.00
2023-02-25T13:00:04.996Z,4264.00
2023-02-25T13:01:05.026Z,3496.00
2023-02-25T13:02:04.929Z,3256.00
2023-02-25T13:03:04.893Z,2300.00
2023-02-25T13:04:04.876Z,2908.00
2023-02-25T13:05:04.816Z,1688.00
2023-02-25T13:06:04.774Z,1380.00
2023-02-25T13:07:04.744Z,1352.00
2023-02-25T13:08:04.699Z,1544.00
2023-02-25T13:09:04.666Z,1860.00
2023-02-25T13:10:04.727Z,2040.00
2023-02-25T13:11:04.597Z,2532.00
2023-02-25T13:12:12.745Z,5912.00
2023-02-25T13:13:04.519Z,1856.00
2023-02-25T13:14:04.495Z,1600.00
2023-02-25T13:15:04.443Z,1460.00
2023-02-25T13:16:04.409Z,1468.00
2023-02-25T13:17:04.368Z,6256.00
2023-02-25T13:18:04.341Z,11664.00
2023-02-25T13:19:04.296Z,11632.00
2023-02-25T13:20:04.381Z,11628.00
2023-02-25T13:21:04.218Z,11768.00
2023-02-25T13:22:04.185Z,11736.00
2023-02-25T13:23:04.149Z,11752.00
2023-02-25T13:24:04.104Z,11808.00
2023-02-25T13:25:04.070Z,11824.00
2023-02-25T13:26:04.033Z,11680.00
2023-02-25T13:27:04.023Z,11804.00
2023-02-25T13:28:03.964Z,11924.00
2023-02-25T13:29:04.120Z,11960.00
2023-02-25T13:30:03.886Z,12324.00
2023-02-25T13:31:03.853Z,12420.00
2023-02-25T13:32:03.928Z,12552.00
2023-02-25T13:33:03.794Z,3396.00
2023-02-25T13:34:03.753Z,3008.00
2023-02-25T13:35:03.707Z,10464.00
2023-02-25T13:36:03.666Z,11724.00
2023-02-25T13:37:03.633Z,10836.00
2023-02-25T13:38:03.599Z,9804.00
2023-02-25T13:39:03.563Z,4212.00
2023-02-25T13:40:03.526Z,6208.00
2023-02-25T13:41:03.486Z,10680.00
2023-02-25T13:42:03.451Z,4280.00
2023-02-25T13:43:03.461Z,3640.00
2023-02-25T13:44:03.378Z,3472.00
2023-02-25T13:45:03.354Z,7228.00
2023-02-25T13:46:03.332Z,2656.00
2023-02-25T13:47:03.280Z,2880.00
2023-02-25T13:48:03.238Z,2376.00
2023-02-25T13:49:03.198Z,2328.00
2023-02-25T13:50:03.162Z,2440.00
2023-02-25T13:51:03.124Z,2780.00
2023-02-25T13:52:03.093Z,3332.00
2023-02-25T13:53:03.063Z,3700.00
2023-02-25T13:54:03.036Z,6380.00
2023-02-25T13:55:02.991Z,1852.00
2023-02-25T13:56:02.943Z,1152.00
2023-02-25T13:57:02.909Z,788.00
2023-02-25T13:58:02.880Z,656.00
2023-02-25T13:59:02.946Z,648.00
2023-02-25T14:00:02.801Z,720.00
2023-02-25T14:01:02.788Z,824.00
2023-02-25T14:02:02.768Z,984.00
2023-02-25T14:03:02.695Z,1172.00
2023-02-25T14:04:02.655Z,1452.00
2023-02-25T14:05:02.623Z,7248.00
2023-02-25T14:06:02.616Z,7368.00
2023-02-25T14:07:02.547Z,7200.00
2023-02-25T14:08:02.514Z,7160.00
2023-02-25T14:09:02.475Z,7204.00
2023-02-25T14:10:02.443Z,7444.00
2023-02-25T14:11:02.414Z,7740.00
2023-02-25T14:12:11.949Z,7944.00
2023-02-25T14:13:02.321Z,7920.00
2023-02-25T14:14:02.309Z,7944.00
2023-02-25T14:15:02.253Z,7912.00
2023-02-25T14:16:02.277Z,3156.00
2023-02-25T14:17:02.177Z,3236.00
2023-02-25T14:18:02.153Z,3360.00
2023-02-25T14:19:02.108Z,2360.00
2023-02-25T14:20:02.075Z,1968.00
2023-02-25T14:21:02.039Z,1892.00
2023-02-25T14:22:01.991Z,1992.00
2023-02-25T14:23:01.958Z,2296.00
2023-02-25T14:24:01.932Z,7872.00
2023-02-25T14:25:01.881Z,3420.00
2023-02-25T14:26:01.850Z,8076.00
2023-02-25T14:27:01.816Z,7872.00
2023-02-25T14:28:01.776Z,8108.00
2023-02-25T14:29:01.737Z,8296.00
2023-02-25T14:30:01.703Z,9620.00
2023-02-25T14:31:01.789Z,12404.00
2023-02-25T14:32:01.711Z,14916.00
2023-02-25T14:33:01.593Z,15688.00
2023-02-25T14:34:01.555Z,14792.00
2023-02-25T14:35:01.516Z,13360.00
2023-02-25T14:36:01.482Z,3456.00
2023-02-25T14:37:01.442Z,8240.00
2023-02-25T14:38:01.404Z,12648.00
2023-02-25T14:39:01.370Z,9280.00
2023-02-25T14:40:01.336Z,11752.00
2023-02-25T14:41:01.294Z,1872.00
2023-02-25T14:42:01.268Z,1856.00
2023-02-25T14:43:02.097Z,3400.00
2023-02-25T14:44:01.189Z,13264.00
2023-02-25T14:45:01.148Z,12920.00
2023-02-25T14:46:01.170Z,12384.00
2023-02-25T14:47:01.109Z,11512.00
2023-02-25T14:48:01.042Z,10828.00
2023-02-25T14:49:01.000Z,10600.00
2023-02-25T14:50:00.963Z,10248.00
2023-02-25T14:51:00.926Z,9908.00
2023-02-25T14:52:00.929Z,9268.00
2023-02-25T14:54:00.834Z,8688.00
2023-02-25T14:55:00.791Z,9796.00
2023-02-25T14:56:00.755Z,9720.00
2023-02-25T14:57:00.718Z,8220.00
2023-02-25T14:58:00.684Z,7916.00
2023-02-25T14:59:00.634Z,5020.00
2023-02-25T15:00:21.601Z,2080.00
2023-02-25T15:01:00.562Z,2016.00
2023-02-25T15:02:00.548Z,4416.00
2023-02-25T15:03:00.490Z,6556.00
2023-02-25T15:04:00.455Z,3368.00
2023-02-25T15:05:00.479Z,6948.00
2023-02-25T15:06:21.532Z,7204.00
2023-02-25T15:07:00.360Z,7508.00
2023-02-25T15:08:00.306Z,8712.00
2023-02-25T15:09:00.275Z,10608.00
2023-02-25T15:10:00.242Z,12716.00
2023-02-25T15:11:00.192Z,13804.00
2023-02-25T15:12:21.166Z,14924.00
2023-02-25T15:13:00.127Z,14076.00
2023-02-25T15:14:00.120Z,12760.00
2023-02-25T15:15:00.048Z,13332.00
2023-02-25T15:16:00.073Z,13000.00
2023-02-25T15:16:59.965Z,13028.00
2023-02-25T15:18:20.933Z,13448.00
2023-02-25T15:18:59.896Z,13100.00
2023-02-25T15:19:59.942Z,13892.00
2023-02-25T15:20:59.829Z,14720.00
2023-02-25T15:22:01.666Z,15060.00
2023-02-25T15:22:59.771Z,11264.00
2023-02-25T15:24:20.707Z,11288.00
2023-02-25T15:24:59.675Z,2944.00
2023-02-25T15:25:59.648Z,9212.00
2023-02-25T15:26:59.605Z,9236.00
2023-02-25T15:27:59.583Z,9568.00
2023-02-25T15:28:59.527Z,9736.00
2023-02-25T15:30:20.523Z,9020.00
2023-02-25T15:30:59.614Z,7776.00
2023-02-25T15:31:59.516Z,6260.00
2023-02-25T15:32:59.383Z,5788.00
2023-02-25T15:33:59.351Z,1984.00
2023-02-25T15:34:59.334Z,2048.00
2023-02-25T15:36:20.467Z,4312.00
2023-02-25T15:36:59.417Z,2776.00
2023-02-25T15:37:59.493Z,1532.00
2023-02-25T15:38:59.282Z,1368.00
2023-02-25T15:39:59.558Z,1712.00
2023-02-25T15:40:59.286Z,1848.00
2023-02-25T15:42:20.260Z,1280.00
2023-02-25T15:43:01.686Z,1420.00
2023-02-25T15:44:00.324Z,2152.00
2023-02-25T15:44:59.212Z,1308.00
2023-02-25T15:45:58.908Z,1384.00
2023-02-25T15:46:58.868Z,1316.00
2023-02-25T15:48:19.831Z,4072.00
2023-02-25T15:48:58.794Z,4144.00
2023-02-25T15:49:58.772Z,4104.00
2023-02-25T15:50:58.728Z,3884.00
2023-02-25T15:51:58.682Z,3544.00
2023-02-25T15:52:58.645Z,3256.00
2023-02-25T15:54:19.601Z,2940.00
2023-02-25T15:54:58.571Z,2904.00
2023-02-25T15:55:58.537Z,3124.00
2023-02-25T15:56:58.490Z,3464.00
2023-02-25T15:57:58.463Z,3516.00
2023-02-25T15:58:58.435Z,3840.00
2023-02-25T16:00:19.412Z,3840.00
2023-02-25T16:00:58.491Z,3528.00
2023-02-25T16:01:58.345Z,3560.00
2023-02-25T16:02:58.496Z,1360.00
2023-02-25T16:03:59.205Z,2368.00
2023-02-25T16:04:58.204Z,2932.00
2023-02-25T16:06:19.160Z,2808.00
2023-02-25T16:06:58.131Z,2824.00
2023-02-25T16:07:58.081Z,2896.00
2023-02-25T16:08:58.049Z,2844.00
2023-02-25T16:09:58.006Z,2764.00
2023-02-25T16:10:57.971Z,2632.00
2023-02-25T16:12:18.923Z,2492.00
2023-02-25T16:12:57.901Z,2408.00
2023-02-25T16:13:57.853Z,2384.00
2023-02-25T16:14:57.822Z,2360.00
2023-02-25T16:15:57.853Z,2292.00
2023-02-25T16:16:57.738Z,2180.00
2023-02-25T16:18:18.714Z,2108.00
2023-02-25T16:18:57.668Z,2052.00
2023-02-25T16:19:57.638Z,1956.00
2023-02-25T16:20:57.593Z,1884.00
2023-02-25T16:21:57.562Z,1796.00
2023-02-25T16:22:57.518Z,1712.00
2023-02-25T16:24:18.478Z,1616.00
2023-02-25T16:24:57.434Z,1512.00
2023-02-25T16:25:57.401Z,1436.00
2023-02-25T16:26:57.361Z,1328.00
2023-02-25T16:27:57.333Z,1240.00
2023-02-25T16:28:57.284Z,1148.00
2023-02-25T16:30:18.273Z,1044.00
2023-02-25T16:30:57.267Z,932.00
2023-02-25T16:31:57.316Z,812.00
2023-02-25T16:32:57.138Z,712.00
2023-02-25T16:33:57.096Z,656.00
2023-02-25T16:34:57.068Z,624.00
2023-02-25T16:36:18.030Z,604.00
2023-02-25T16:36:56.981Z,588.00
2023-02-25T16:37:56.950Z,564.00
2023-02-25T16:38:56.913Z,552.00
2023-02-25T16:39:56.869Z,532.00
2023-02-25T16:40:56.841Z,512.00
2023-02-25T16:42:17.792Z,492.00
2023-02-25T16:42:56.757Z,480.00
2023-02-25T16:43:56.749Z,456.00
2023-02-25T16:44:56.677Z,440.00
2023-02-25T16:45:56.699Z,424.00
2023-02-25T16:46:56.603Z,404.00
2023-02-25T16:48:17.577Z,388.00
2023-02-25T16:48:56.539Z,372.00
2023-02-25T16:49:56.491Z,356.00
2023-02-25T16:50:56.470Z,336.00
2023-02-25T16:51:56.490Z,320.00
2023-02-25T16:52:56.380Z,300.00
2023-02-25T16:54:17.335Z,288.00
2023-02-25T16:54:56.299Z,272.00
2023-02-25T16:55:56.253Z,256.00
2023-02-25T16:56:56.216Z,240.00
2023-02-25T16:57:56.179Z,224.00
2023-02-25T16:58:56.148Z,212.00
2023-02-25T17:00:17.126Z,200.00
2023-02-25T17:00:56.089Z,184.00
2023-02-25T17:01:56.031Z,172.00
2023-02-25T17:02:55.991Z,156.00
2023-02-25T17:03:55.976Z,148.00
2023-02-25T17:04:55.916Z,132.00
2023-02-25T17:06:16.868Z,124.00
2023-02-25T17:06:55.837Z,112.00
2023-02-25T17:07:55.796Z,100.00
2023-02-25T17:08:55.755Z,96.00
2023-02-25T17:09:55.795Z,88.00
2023-02-25T17:10:55.692Z,76.00
2023-02-25T17:12:16.635Z,72.00
2023-02-25T17:12:55.604Z,64.00
2023-02-25T17:13:55.564Z,56.00
2023-02-25T17:14:55.527Z,52.00
2023-02-25T17:15:55.493Z,48.00
2023-02-25T17:16:55.474Z,40.00
2023-02-25T17:18:16.408Z,36.00
2023-02-25T17:18:55.378Z,32.00
2023-02-25T17:19:55.334Z,28.00
2023-02-25T17:20:55.302Z,24.00
2023-02-25T17:21:55.265Z,20.00
2023-02-25T17:22:55.217Z,16.00
2023-02-25T17:24:16.196Z,16.00
2023-02-25T17:24:55.138Z,16.00
2023-02-25T17:25:55.107Z,12.00
2023-02-25T17:26:55.081Z,12.00
2023-02-25T17:27:55.026Z,8.00
2023-02-25T17:28:54.990Z,8.00
2023-02-25T17:30:15.960Z,4.00
2023-02-25T17:30:54.983Z,8.00
2023-02-25T17:31:54.945Z,4.00
2023-02-25T17:32:54.830Z,4.00
2023-02-25T17:33:54.793Z,0.00
2023-02-25T17:34:54.757Z,4.00
2023-02-25T17:36:15.712Z,0.00
2023-02-25T17:36:54.671Z,4.00
2023-02-25T17:37:54.639Z,0.00
2023-02-25T17:38:54.615Z,0.00
2023-02-25T17:39:55.173Z,4.00
2023-02-25T17:40:54.525Z,4.00
2023-02-25T17:42:15.602Z,0.00
2023-02-25T17:42:54.443Z,0.00
2023-02-25T17:43:54.431Z,0.00
2023-02-25T17:44:54.368Z,0.00
2023-02-25T17:45:54.385Z,0.00
2023-02-25T17:46:54.304Z,0.00
2023-02-25T17:48:15.259Z,0.00
2023-02-25T17:48:54.212Z,0.00
2023-02-25T17:49:54.254Z,0.00
2023-02-25T17:50:54.128Z,0.00
2023-02-25T17:51:54.093Z,0.00
2023-02-25T17:52:54.616Z,0.00
2023-02-25T17:54:15.019Z,0.00
2023-02-25T17:54:54.027Z,0.00
2023-02-25T17:55:53.944Z,0.00
2023-02-25T17:56:53.918Z,0.00
2023-02-25T17:57:53.873Z,0.00
2023-02-25T17:58:53.821Z,0.00
2023-02-25T18:00:14.796Z,0.00
2023-02-25T18:00:53.750Z,0.00
2023-02-25T18:01:53.699Z,0.00
2023-02-25T18:02:53.725Z,0.00
2023-02-25T18:03:53.627Z,0.00
2023-02-25T18:04:53.603Z,0.00
2023-02-25T18:06:14.562Z,0.00
2023-02-25T18:06:53.557Z,0.00
2023-02-25T18:07:53.481Z,0.00
2023-02-25T18:08:53.432Z,0.00
2023-02-25T18:09:53.488Z,0.00
2023-02-25T18:10:53.397Z,0.00
2023-02-25T18:12:14.307Z,0.00
2023-02-25T18:12:53.268Z,0.00
2023-02-25T18:13:53.238Z,0.00
2023-02-25T18:14:53.194Z,0.00
2023-02-25T18:15:59.649Z,0.00
2023-02-25T18:16:53.123Z,0.00
2023-02-25T18:18:14.072Z,0.00
2023-02-25T18:18:53.039Z,0.00
2023-02-25T18:19:53.071Z,0.00
2023-02-25T18:20:52.980Z,0.00
2023-02-25T18:21:52.924Z,0.00
2023-02-25T18:22:52.886Z,0.00
2023-02-25T18:24:13.848Z,0.00
2023-02-25T18:24:53.621Z,0.00
2023-02-25T18:25:52.769Z,0.00
2023-02-25T18:26:52.743Z,0.00
2023-02-25T18:27:52.689Z,0.00
2023-02-25T18:28:52.639Z,0.00
2023-02-25T18:30:13.613Z,0.00
2023-02-25T18:30:52.678Z,0.00
2023-02-25T18:31:52.690Z,0.00
2023-02-25T18:32:52.483Z,0.00
2023-02-25T18:33:52.453Z,0.00
2023-02-25T18:34:52.413Z,0.00
2023-02-25T18:36:13.530Z,0.00
2023-02-25T18:36:52.324Z,0.00
2023-02-25T18:37:52.288Z,0.00
2023-02-25T18:38:52.250Z,0.00
2023-02-25T18:39:52.277Z,0.00
2023-02-25T18:40:52.191Z,0.00
2023-02-25T18:42:13.133Z,0.00
2023-02-25T18:42:52.099Z,0.00
2023-02-25T18:43:52.069Z,0.00
2023-02-25T18:44:52.018Z,0.00
2023-02-25T18:45:51.974Z,0.00
2023-02-25T18:46:51.950Z,0.00
2023-02-25T18:48:12.887Z,0.00
2023-02-25T18:48:51.852Z,0.00
2023-02-25T18:49:51.820Z,0.00
2023-02-25T18:50:51.835Z,0.00
2023-02-25T18:51:51.730Z,0.00
2023-02-25T18:52:51.692Z,0.00
2023-02-25T18:54:12.664Z,0.00
2023-02-25T18:54:51.612Z,0.00
2023-02-25T18:55:51.572Z,0.00
2023-02-25T18:56:51.539Z,0.00
2023-02-25T18:57:51.501Z,0.00
2023-02-25T18:58:51.484Z,0.00
2023-02-25T19:00:12.410Z,0.00
2023-02-25T19:00:51.393Z,0.00
2023-02-25T19:01:51.474Z,0.00
2023-02-25T19:02:51.312Z,0.00
2023-02-25T19:03:51.261Z,0.00
2023-02-25T19:04:51.224Z,0.00
2023-02-25T19:06:12.178Z,0.00
2023-02-25T19:06:51.144Z,0.00
2023-02-25T19:07:51.111Z,0.00
2023-02-25T19:08:51.104Z,0.00
2023-02-25T19:09:51.030Z,0.00
2023-02-25T19:10:50.985Z,0.00
2023-02-25T19:12:11.940Z,0.00
2023-02-25T19:12:50.944Z,0.00
2023-02-25T19:13:50.880Z,0.00
2023-02-25T19:14:50.826Z,0.00
2023-02-25T19:15:50.797Z,0.00
2023-02-25T19:16:50.750Z,0.00
2023-02-25T19:18:11.709Z,0.00
2023-02-25T19:18:50.676Z,0.00
2023-02-25T19:19:50.633Z,0.00
2023-02-25T19:20:50.603Z,0.00
2023-02-25T19:21:51.143Z,0.00
2023-02-25T19:22:50.518Z,0.00
2023-02-25T19:24:11.473Z,0.00
2023-02-25T19:24:50.430Z,0.00
2023-02-25T19:25:50.400Z,0.00
2023-02-25T19:26:50.359Z,0.00
2023-02-25T19:27:50.314Z,0.00
2023-02-25T19:28:50.286Z,0.00
2023-02-25T19:30:11.234Z,0.00
2023-02-25T19:30:50.240Z,0.00
2023-02-25T19:31:50.275Z,0.00
2023-02-25T19:32:50.115Z,0.00
2023-02-25T19:33:50.077Z,0.00
2023-02-25T19:34:50.042Z,0.00
2023-02-25T19:36:10.986Z,0.00
2023-02-25T19:36:49.957Z,0.00
2023-02-25T19:37:49.967Z,0.00
2023-02-25T19:38:49.874Z,0.00
2023-02-25T19:39:49.841Z,0.00
2023-02-25T19:40:49.796Z,0.00
2023-02-25T19:42:10.758Z,0.00
2023-02-25T19:42:49.713Z,0.00
2023-02-25T19:43:49.677Z,0.00
2023-02-25T19:44:49.648Z,0.00
2023-02-25T19:45:49.612Z,0.00
2023-02-25T19:46:49.573Z,0.00
2023-02-25T19:48:10.538Z,0.00
2023-02-25T19:48:49.469Z,0.00
2023-02-25T19:49:49.467Z,0.00
2023-02-25T19:50:49.434Z,0.00
2023-02-25T19:51:49.394Z,0.00
2023-02-25T19:52:49.315Z,0.00
2023-02-25T19:54:10.278Z,0.00
2023-02-25T19:54:49.238Z,0.00
2023-02-25T19:55:49.199Z,0.00
2023-02-25T19:56:49.148Z,0.00
2023-02-25T19:57:49.115Z,0.00
2023-02-25T19:58:49.082Z,0.00
2023-02-25T20:00:10.038Z,0.00
2023-02-25T20:00:49.003Z,0.00
2023-02-25T20:01:48.953Z,0.00
2023-02-25T20:02:48.914Z,0.00
2023-02-25T20:03:48.914Z,0.00
2023-02-25T20:04:48.836Z,0.00
2023-02-25T20:06:11.697Z,0.00
2023-02-25T20:06:48.756Z,0.00
2023-02-25T20:07:48.731Z,0.00
2023-02-25T20:08:48.693Z,0.00
2023-02-25T20:09:48.670Z,0.00
2023-02-25T20:10:49.142Z,0.00
2023-02-25T20:12:09.553Z,0.00
2023-02-25T20:12:48.538Z,0.00
2023-02-25T20:13:48.486Z,0.00
2023-02-25T20:14:48.440Z,0.00
2023-02-25T20:15:48.408Z,0.00
2023-02-25T20:16:48.418Z,0.00
2023-02-25T20:18:09.336Z,0.00
2023-02-25T20:18:48.277Z,0.00
2023-02-25T20:19:48.243Z,0.00
2023-02-25T20:20:48.212Z,0.00
2023-02-25T20:21:48.169Z,0.00
2023-02-25T20:22:48.124Z,0.00
2023-02-25T20:24:09.076Z,0.00
2023-02-25T20:24:48.054Z,0.00
2023-02-25T20:25:48.027Z,0.00
2023-02-25T20:26:47.962Z,0.00
2023-02-25T20:27:47.939Z,0.00
2023-02-25T20:28:47.879Z,0.00
2023-02-25T20:30:08.907Z,0.00
2023-02-25T20:30:47.830Z,0.00
2023-02-25T20:31:47.832Z,0.00
2023-02-25T20:32:47.735Z,0.00
2023-02-25T20:33:47.691Z,0.00
2023-02-25T20:34:47.642Z,0.00
2023-02-25T20:36:08.593Z,0.00
2023-02-25T20:36:47.568Z,0.00
2023-02-25T20:37:47.539Z,0.00
2023-02-25T20:38:47.489Z,0.00
2023-02-25T20:39:47.452Z,0.00
2023-02-25T20:40:47.413Z,0.00
2023-02-25T20:42:08.361Z,0.00
2023-02-25T20:42:47.324Z,0.00
2023-02-25T20:43:47.293Z,0.00
2023-02-25T20:44:47.250Z,0.00
2023-02-25T20:45:47.240Z,0.00
2023-02-25T20:46:47.174Z,0.00
2023-02-25T20:48:08.119Z,0.00
2023-02-25T20:48:47.091Z,0.00
2023-02-25T20:49:47.051Z,0.00
2023-02-25T20:50:47.020Z,0.00
2023-02-25T20:51:46.960Z,0.00
2023-02-25T20:52:46.924Z,0.00
2023-02-25T20:54:07.910Z,0.00
2023-02-25T20:54:46.836Z,0.00
2023-02-25T20:55:46.807Z,0.00
2023-02-25T20:56:46.772Z,0.00
2023-02-25T20:57:46.721Z,0.00
2023-02-25T20:58:46.680Z,0.00
2023-02-25T21:00:07.640Z,0.00
2023-02-25T21:00:46.653Z,0.00
2023-02-25T21:01:46.560Z,0.00
2023-02-25T21:02:46.528Z,0.00
2023-02-25T21:03:47.153Z,0.00
2023-02-25T21:04:46.440Z,0.00
2023-02-25T21:06:07.407Z,0.00
2023-02-25T21:06:46.373Z,0.00
2023-02-25T21:07:46.323Z,0.00
2023-02-25T21:08:46.281Z,0.00
2023-02-25T21:09:46.251Z,0.00
2023-02-25T21:10:46.211Z,0.00
2023-02-25T21:12:07.179Z,0.00
2023-02-25T21:12:46.142Z,0.00
2023-02-25T21:13:46.092Z,0.00
2023-02-25T21:14:46.049Z,0.00
2023-02-25T21:15:46.014Z,0.00
2023-02-25T21:16:46.020Z,0.00
2023-02-25T21:18:06.923Z,0.00
2023-02-25T21:18:45.894Z,0.00
2023-02-25T21:19:45.854Z,0.00
2023-02-25T21:20:45.800Z,0.00
2023-02-25T21:21:45.771Z,0.00
2023-02-25T21:22:45.730Z,0.00
2023-02-25T21:24:06.681Z,0.00
2023-02-25T21:24:45.656Z,0.00
2023-02-25T21:25:45.610Z,0.00
2023-02-25T21:26:45.578Z,0.00
2023-02-25T21:27:45.553Z,0.00
2023-02-25T21:28:45.504Z,0.00
2023-02-25T21:30:06.469Z,0.00
2023-02-25T21:30:45.495Z,0.00
2023-02-25T21:31:45.518Z,0.00
2023-02-25T21:32:45.339Z,0.00
2023-02-25T21:33:45.287Z,0.00
2023-02-25T21:34:45.254Z,0.00
2023-02-25T21:36:06.192Z,0.00
2023-02-25T21:36:45.165Z,0.00
2023-02-25T21:37:45.137Z,0.00
2023-02-25T21:38:45.088Z,0.00
2023-02-25T21:39:45.050Z,0.00
2023-02-25T21:40:45.009Z,0.00
2023-02-25T21:42:05.978Z,0.00
2023-02-25T21:42:44.935Z,0.00
2023-02-25T21:43:44.906Z,0.00
2023-02-25T21:44:44.841Z,0.00
2023-02-25T21:45:44.823Z,0.00
2023-02-25T21:46:44.764Z,0.00
2023-02-25T21:48:05.721Z,0.00
2023-02-25T21:48:44.703Z,0.00
2023-02-25T21:49:44.647Z,0.00
2023-02-25T21:50:44.607Z,0.00
2023-02-25T21:51:44.565Z,0.00
2023-02-25T21:52:44.517Z,0.00
2023-02-25T21:54:05.487Z,0.00
2023-02-25T21:54:44.441Z,0.00
2023-02-25T21:55:44.398Z,0.00
2023-02-25T21:56:44.371Z,0.00
2023-02-25T21:57:44.428Z,0.00
2023-02-25T21:58:44.318Z,0.00
2023-02-25T22:00:05.242Z,0.00
2023-02-25T22:00:44.195Z,0.00
2023-02-25T22:01:44.206Z,0.00
2023-02-25T22:02:44.132Z,0.00
2023-02-25T22:03:44.079Z,0.00
2023-02-25T22:04:44.116Z,0.00
2023-02-25T22:06:04.996Z,0.00
2023-02-25T22:06:43.956Z,0.00
2023-02-25T22:07:43.926Z,0.00
2023-02-25T22:08:43.900Z,0.00
2023-02-25T22:09:43.835Z,0.00
2023-02-25T22:10:43.802Z,0.00
2023-02-25T22:12:04.763Z,0.00
2023-02-25T22:12:43.719Z,0.00
2023-02-25T22:13:43.711Z,0.00
2023-02-25T22:14:43.637Z,0.00
2023-02-25T22:15:43.628Z,0.00
2023-02-25T22:16:43.554Z,0.00
2023-02-25T22:18:04.510Z,0.00
2023-02-25T22:18:43.480Z,0.00
2023-02-25T22:19:43.440Z,0.00
2023-02-25T22:20:43.393Z,0.00
2023-02-25T22:21:43.359Z,0.00
2023-02-25T22:22:43.317Z,0.00
2023-02-25T22:24:04.316Z,0.00
2023-02-25T22:24:43.237Z,0.00
2023-02-25T22:25:43.196Z,0.00
2023-02-25T22:26:43.152Z,0.00
2023-02-25T22:27:43.105Z,0.00
2023-02-25T22:28:43.078Z,0.00
2023-02-25T22:30:04.031Z,0.00
2023-02-25T22:30:43.013Z,0.00
2023-02-25T22:31:43.072Z,0.00
2023-02-25T22:32:42.916Z,0.00
2023-02-25T22:33:42.875Z,0.00
2023-02-25T22:34:42.831Z,0.00
2023-02-25T22:36:03.784Z,0.00
2023-02-25T22:36:42.753Z,0.00
2023-02-25T22:37:42.710Z,0.00
2023-02-25T22:38:42.680Z,0.00
2023-02-25T22:39:42.629Z,0.00
2023-02-25T22:40:42.595Z,0.00
2023-02-25T22:42:03.543Z,0.00
2023-02-25T22:42:42.518Z,0.00
2023-02-25T22:43:42.462Z,0.00
2023-02-25T22:44:42.477Z,0.00
2023-02-25T22:45:42.395Z,0.00
2023-02-25T22:46:42.392Z,0.00
2023-02-25T22:48:03.290Z,0.00
2023-02-25T22:48:42.258Z,0.00
2023-02-25T22:49:42.222Z,0.00
2023-02-25T22:50:42.177Z,0.00
2023-02-25T22:51:42.188Z,0.00
2023-02-25T22:52:43.692Z,0.00
2023-02-25T22:54:03.062Z,0.00
2023-02-25T22:54:42.023Z,0.00
2023-02-25T22:55:41.982Z,0.00
2023-02-25T22:56:41.937Z,0.00
2023-02-25T22:57:41.896Z,0.00
2023-02-25T22:58:41.867Z,0.00
2023-02-25T23:00:02.828Z,0.00
2023-02-25T23:00:41.786Z,0.00
2023-02-25T23:01:41.826Z,0.00
2023-02-25T23:02:41.741Z,0.00
2023-02-25T23:03:41.647Z,0.00
2023-02-25T23:04:41.650Z,0.00
2023-02-25T23:06:02.555Z,0.00
2023-02-25T23:06:44.339Z,0.00
2023-02-25T23:07:41.482Z,0.00
2023-02-25T23:08:41.444Z,0.00
2023-02-25T23:09:41.400Z,0.00
2023-02-25T23:10:41.370Z,0.00
2023-02-25T23:12:02.310Z,0.00
2023-02-25T23:12:41.273Z,0.00
2023-02-25T23:13:41.238Z,0.00
2023-02-25T23:14:41.201Z,0.00
2023-02-25T23:15:41.164Z,0.00
2023-02-25T23:16:41.209Z,0.00
2023-02-25T23:18:02.074Z,0.00
2023-02-25T23:18:41.035Z,0.00
2023-02-25T23:19:41.013Z,0.00
2023-02-25T23:20:40.962Z,0.00
2023-02-25T23:21:40.909Z,0.00
2023-02-25T23:22:40.873Z,0.00
2023-02-25T23:24:01.865Z,0.00
2023-02-25T23:24:40.796Z,0.00
2023-02-25T23:25:40.763Z,0.00
2023-02-25T23:26:40.725Z,0.00
2023-02-25T23:27:40.670Z,0.00
2023-02-25T23:28:40.697Z,0.00
2023-02-25T23:30:01.579Z,0.00
2023-02-25T23:30:40.564Z,0.00
2023-02-25T23:31:40.615Z,0.00
2023-02-25T23:32:40.478Z,0.00
2023-02-25T23:33:40.424Z,0.00
2023-02-25T23:34:40.407Z,0.00
2023-02-25T23:36:01.328Z,0.00
2023-02-25T23:36:40.297Z,0.00
2023-02-25T23:37:40.269Z,0.00
2023-02-25T23:38:40.228Z,0.00
2023-02-25T23:39:40.176Z,0.00
2023-02-25T23:40:40.140Z,0.00
2023-02-25T23:42:01.101Z,0.00
2023-02-25T23:42:40.058Z,0.00
2023-02-25T23:43:40.011Z,0.00
2023-02-25T23:44:39.976Z,0.00
2023-02-25T23:45:39.958Z,0.00
2023-02-25T23:46:39.892Z,0.00
2023-02-25T23:48:00.844Z,0.00
2023-02-25T23:48:39.815Z,0.00
2023-02-25T23:49:39.759Z,0.00
2023-02-25T23:50:39.723Z,0.00
2023-02-25T23:51:39.678Z,0.00
2023-02-25T23:52:39.638Z,0.00
2023-02-25T23:54:00.595Z,0.00
2023-02-25T23:54:39.592Z,0.00
2023-02-25T23:55:39.513Z,0.00
2023-02-25T23:56:39.480Z,0.00
2023-02-25T23:57:39.428Z,0.00
2023-02-25T23:58:39.392Z,0.00
